sensor_id;sensor_type;location;lat;lon;timestamp;P1;durP1;ratioP1;P2;durP2;ratioP2
6386;SDS011;3226;42.162;24.756;2023-01-20T00:01:26;7.03;;;6.73;;
6386;SDS011;3226;42.162;24.756;2023-01-20T00:03:55;6.97;;;6.67;;
6386;SDS011;3226;42.162;24.756;2023-01-20T00:06:24;7.73;;;7.43;;
6386;SDS011;3226;42.162;24.756;2023-01-20T00:08:53;6.93;;;6.63;;
6386;SDS011;3226;42.162;24.756;2023-01-20T00:11:24;6.43;;;6.13;;
6386;SDS011;3226;42.162;24.756;2023-01-20T00:13:52;7.30;;;7.00;;
6386;SDS011;3226;42.162;24.756;2023-01-20T00:16:22;7.87;;;7.57;;
6386;SDS011;3226;42.162;24.756;2023-01-20T00:18:50;7.30;;;7.00;;
6386;SDS011;3226;42.162;24.756;2023-01-20T00:21:19;7.33;;;7.03;;
6386;SDS011;3226;42.162;24.756;2023-01-20T00:23:47;7.83;;;7.53;;
6386;SDS011;3226;42.162;24.756;2023-01-20T00:26:16;7.47;;;7.17;;
6386;SDS011;3226;42.162;24.756;2023-01-20T00:28:46;7.93;;;7.63;;
6386;SDS011;3226;42.162;24.756;2023-01-20T00:31:16;8.27;;;7.93;;
6386;SDS011;3226;42.162;24.756;2023-01-20T00:33:46;7.07;;;6.77;;
6386;SDS011;3226;42.162;24.756;2023-01-20T00:36:15;8.50;;;8.10;;
6386;SDS011;3226;42.162;24.756;2023-01-20T00:38:45;7.83;;;7.53;;
6386;SDS011;3226;42.162;24.756;2023-01-20T00:41:13;7.00;;;6.70;;
6386;SDS011;3226;42.162;24.756;2023-01-20T00:43:41;7.00;;;6.70;;
6386;SDS011;3226;42.162;24.756;2023-01-20T00:46:11;7.70;;;7.40;;
6386;SDS011;3226;42.162;24.756;2023-01-20T00:48:39;7.10;;;6.80;;
6386;SDS011;3226;42.162;24.756;2023-01-20T00:51:08;7.20;;;6.90;;
6386;SDS011;3226;42.162;24.756;2023-01-20T00:53:36;6.73;;;6.43;;
6386;SDS011;3226;42.162;24.756;2023-01-20T00:56:05;7.37;;;7.07;;
6386;SDS011;3226;42.162;24.756;2023-01-20T00:58:33;7.37;;;7.07;;
6386;SDS011;3226;42.162;24.756;2023-01-20T01:01:01;7.90;;;7.60;;
6386;SDS011;3226;42.162;24.756;2023-01-20T01:03:32;7.80;;;7.50;;
6386;SDS011;3226;42.162;24.756;2023-01-20T01:06:09;5.97;;;5.77;;
6386;SDS011;3226;42.162;24.756;2023-01-20T01:08:38;8.00;;;7.70;;
6386;SDS011;3226;42.162;24.756;2023-01-20T01:11:07;7.47;;;7.17;;
6386;SDS011;3226;42.162;24.756;2023-01-20T01:13:35;7.13;;;6.83;;
6386;SDS011;3226;42.162;24.756;2023-01-20T01:16:07;7.87;;;7.57;;
6386;SDS011;3226;42.162;24.756;2023-01-20T01:18:38;7.90;;;7.60;;
6386;SDS011;3226;42.162;24.756;2023-01-20T01:21:07;7.77;;;7.47;;
6386;SDS011;3226;42.162;24.756;2023-01-20T01:23:36;7.23;;;6.93;;
6386;SDS011;3226;42.162;24.756;2023-01-20T01:26:04;6.73;;;6.43;;
6386;SDS011;3226;42.162;24.756;2023-01-20T01:28:32;7.80;;;7.50;;
6386;SDS011;3226;42.162;24.756;2023-01-20T01:31:00;8.57;;;8.17;;
6386;SDS011;3226;42.162;24.756;2023-01-20T01:33:29;8.47;;;8.07;;
6386;SDS011;3226;42.162;24.756;2023-01-20T01:35:59;7.90;;;7.60;;
6386;SDS011;3226;42.162;24.756;2023-01-20T01:38:28;8.03;;;7.73;;
6386;SDS011;3226;42.162;24.756;2023-01-20T01:40:56;7.50;;;7.20;;
6386;SDS011;3226;42.162;24.756;2023-01-20T01:43:24;7.67;;;7.37;;
6386;SDS011;3226;42.162;24.756;2023-01-20T01:45:53;7.50;;;7.20;;
6386;SDS011;3226;42.162;24.756;2023-01-20T01:48:22;7.57;;;7.27;;
6386;SDS011;3226;42.162;24.756;2023-01-20T01:50:54;7.67;;;7.37;;
6386;SDS011;3226;42.162;24.756;2023-01-20T01:53:26;8.90;;;8.50;;
6386;SDS011;3226;42.162;24.756;2023-01-20T01:56:00;7.93;;;7.63;;
6386;SDS011;3226;42.162;24.756;2023-01-20T01:58:29;7.90;;;7.60;;
6386;SDS011;3226;42.162;24.756;2023-01-20T02:01:02;8.93;;;8.53;;
6386;SDS011;3226;42.162;24.756;2023-01-20T02:03:32;6.83;;;6.53;;
6386;SDS011;3226;42.162;24.756;2023-01-20T02:06:06;5.83;;;5.63;;
6386;SDS011;3226;42.162;24.756;2023-01-20T02:08:37;6.80;;;6.50;;
6386;SDS011;3226;42.162;24.756;2023-01-20T02:11:06;6.23;;;6.00;;
6386;SDS011;3226;42.162;24.756;2023-01-20T02:13:34;6.97;;;6.67;;
6386;SDS011;3226;42.162;24.756;2023-01-20T02:16:04;6.40;;;6.10;;
6386;SDS011;3226;42.162;24.756;2023-01-20T02:18:47;6.70;;;6.40;;
6386;SDS011;3226;42.162;24.756;2023-01-20T02:24:42;6.33;;;6.07;;
6386;SDS011;3226;42.162;24.756;2023-01-20T02:27:48;6.40;;;6.10;;
6386;SDS011;3226;42.162;24.756;2023-01-20T02:30:38;5.87;;;5.67;;
6386;SDS011;3226;42.162;24.756;2023-01-20T02:33:20;7.07;;;6.77;;
6386;SDS011;3226;42.162;24.756;2023-01-20T02:35:54;6.40;;;6.10;;
6386;SDS011;3226;42.162;24.756;2023-01-20T02:38:27;6.47;;;6.17;;
6386;SDS011;3226;42.162;24.756;2023-01-20T02:41:01;5.87;;;5.67;;
6386;SDS011;3226;42.162;24.756;2023-01-20T02:43:37;6.23;;;6.00;;
6386;SDS011;3226;42.162;24.756;2023-01-20T02:46:14;6.33;;;6.07;;
6386;SDS011;3226;42.162;24.756;2023-01-20T02:48:51;6.87;;;6.57;;
6386;SDS011;3226;42.162;24.756;2023-01-20T02:51:23;6.43;;;6.13;;
6386;SDS011;3226;42.162;24.756;2023-01-20T02:53:54;6.63;;;6.33;;
6386;SDS011;3226;42.162;24.756;2023-01-20T02:56:27;6.77;;;6.47;;
6386;SDS011;3226;42.162;24.756;2023-01-20T02:58:57;7.93;;;7.63;;
6386;SDS011;3226;42.162;24.756;2023-01-20T03:01:29;7.03;;;6.73;;
6386;SDS011;3226;42.162;24.756;2023-01-20T03:04:01;5.70;;;5.50;;
6386;SDS011;3226;42.162;24.756;2023-01-20T03:06:32;7.60;;;7.30;;
6386;SDS011;3226;42.162;24.756;2023-01-20T03:09:04;6.30;;;6.03;;
6386;SDS011;3226;42.162;24.756;2023-01-20T03:11:37;6.07;;;5.87;;
6386;SDS011;3226;42.162;24.756;2023-01-20T03:14:10;6.50;;;6.20;;
6386;SDS011;3226;42.162;24.756;2023-01-20T03:16:40;6.43;;;6.17;;
6386;SDS011;3226;42.162;24.756;2023-01-20T03:19:10;6.13;;;5.93;;
6386;SDS011;3226;42.162;24.756;2023-01-20T03:21:38;6.50;;;6.20;;
6386;SDS011;3226;42.162;24.756;2023-01-20T03:24:06;5.97;;;5.77;;
6386;SDS011;3226;42.162;24.756;2023-01-20T03:26:35;6.10;;;5.87;;
6386;SDS011;3226;42.162;24.756;2023-01-20T03:29:05;6.00;;;5.80;;
6386;SDS011;3226;42.162;24.756;2023-01-20T03:31:37;6.63;;;6.33;;
6386;SDS011;3226;42.162;24.756;2023-01-20T03:34:11;6.73;;;6.43;;
6386;SDS011;3226;42.162;24.756;2023-01-20T03:36:43;5.87;;;5.67;;
6386;SDS011;3226;42.162;24.756;2023-01-20T03:39:12;6.57;;;6.27;;
6386;SDS011;3226;42.162;24.756;2023-01-20T03:41:43;6.93;;;6.63;;
6386;SDS011;3226;42.162;24.756;2023-01-20T03:44:21;7.87;;;7.57;;
6386;SDS011;3226;42.162;24.756;2023-01-20T03:46:57;7.93;;;7.63;;
6386;SDS011;3226;42.162;24.756;2023-01-20T03:49:35;10.40;;;9.97;;
6386;SDS011;3226;42.162;24.756;2023-01-20T03:52:14;7.87;;;7.57;;
6386;SDS011;3226;42.162;24.756;2023-01-20T03:55:11;7.07;;;6.77;;
6386;SDS011;3226;42.162;24.756;2023-01-20T03:57:43;7.27;;;6.97;;
6386;SDS011;3226;42.162;24.756;2023-01-20T04:00:18;7.80;;;7.50;;
6386;SDS011;3226;42.162;24.756;2023-01-20T04:02:48;7.30;;;7.00;;
6386;SDS011;3226;42.162;24.756;2023-01-20T04:05:18;7.30;;;7.00;;
6386;SDS011;3226;42.162;24.756;2023-01-20T04:07:46;7.57;;;7.28;;
6386;SDS011;3226;42.162;24.756;2023-01-20T04:10:16;6.77;;;6.47;;
6386;SDS011;3226;42.162;24.756;2023-01-20T04:12:44;7.03;;;6.73;;
6386;SDS011;3226;42.162;24.756;2023-01-20T04:15:12;6.27;;;5.97;;
6386;SDS011;3226;42.162;24.756;2023-01-20T04:17:42;7.33;;;7.03;;
6386;SDS011;3226;42.162;24.756;2023-01-20T04:20:10;6.10;;;5.90;;
6386;SDS011;3226;42.162;24.756;2023-01-20T04:22:44;7.00;;;6.70;;
6386;SDS011;3226;42.162;24.756;2023-01-20T04:25:17;6.43;;;6.13;;
6386;SDS011;3226;42.162;24.756;2023-01-20T04:27:50;7.17;;;6.87;;
6386;SDS011;3226;42.162;24.756;2023-01-20T04:30:18;7.83;;;7.53;;
6386;SDS011;3226;42.162;24.756;2023-01-20T04:32:46;7.77;;;7.47;;
6386;SDS011;3226;42.162;24.756;2023-01-20T04:35:15;7.13;;;6.83;;
6386;SDS011;3226;42.162;24.756;2023-01-20T04:37:46;6.57;;;6.27;;
6386;SDS011;3226;42.162;24.756;2023-01-20T04:40:14;8.00;;;7.70;;
6386;SDS011;3226;42.162;24.756;2023-01-20T04:42:43;8.40;;;8.03;;
6386;SDS011;3226;42.162;24.756;2023-01-20T04:45:13;7.50;;;7.20;;
6386;SDS011;3226;42.162;24.756;2023-01-20T04:47:42;8.23;;;7.90;;
6386;SDS011;3226;42.162;24.756;2023-01-20T04:50:11;8.27;;;7.93;;
6386;SDS011;3226;42.162;24.756;2023-01-20T04:52:40;7.47;;;7.17;;
6386;SDS011;3226;42.162;24.756;2023-01-20T04:55:10;7.33;;;7.03;;
6386;SDS011;3226;42.162;24.756;2023-01-20T04:57:38;7.60;;;7.30;;
6386;SDS011;3226;42.162;24.756;2023-01-20T05:00:07;8.40;;;8.00;;
6386;SDS011;3226;42.162;24.756;2023-01-20T05:02:36;9.20;;;8.80;;
6386;SDS011;3226;42.162;24.756;2023-01-20T05:05:04;8.30;;;7.93;;
6386;SDS011;3226;42.162;24.756;2023-01-20T05:07:32;7.87;;;7.57;;
6386;SDS011;3226;42.162;24.756;2023-01-20T05:10:00;8.07;;;7.77;;
6386;SDS011;3226;42.162;24.756;2023-01-20T05:12:29;9.73;;;9.33;;
6386;SDS011;3226;42.162;24.756;2023-01-20T05:14:57;8.13;;;7.83;;
6386;SDS011;3226;42.162;24.756;2023-01-20T05:17:25;7.67;;;7.37;;
6386;SDS011;3226;42.162;24.756;2023-01-20T05:19:53;6.70;;;6.40;;
6386;SDS011;3226;42.162;24.756;2023-01-20T05:22:21;7.43;;;7.13;;
6386;SDS011;3226;42.162;24.756;2023-01-20T05:24:49;8.03;;;7.73;;
6386;SDS011;3226;42.162;24.756;2023-01-20T05:27:17;9.77;;;9.37;;
6386;SDS011;3226;42.162;24.756;2023-01-20T05:29:46;10.07;;;9.67;;
6386;SDS011;3226;42.162;24.756;2023-01-20T05:32:14;9.83;;;9.43;;
6386;SDS011;3226;42.162;24.756;2023-01-20T05:34:42;10.60;;;10.10;;
6386;SDS011;3226;42.162;24.756;2023-01-20T05:37:10;8.40;;;8.00;;
6386;SDS011;3226;42.162;24.756;2023-01-20T05:39:38;7.27;;;6.97;;
6386;SDS011;3226;42.162;24.756;2023-01-20T05:42:06;6.23;;;6.00;;
6386;SDS011;3226;42.162;24.756;2023-01-20T05:44:34;6.73;;;6.43;;
6386;SDS011;3226;42.162;24.756;2023-01-20T05:47:04;8.73;;;8.33;;
6386;SDS011;3226;42.162;24.756;2023-01-20T05:49:32;10.90;;;10.40;;
6386;SDS011;3226;42.162;24.756;2023-01-20T05:52:00;7.93;;;7.63;;
6386;SDS011;3226;42.162;24.756;2023-01-20T05:54:28;9.87;;;9.47;;
6386;SDS011;3226;42.162;24.756;2023-01-20T05:56:56;7.70;;;7.40;;
6386;SDS011;3226;42.162;24.756;2023-01-20T05:59:24;6.93;;;6.63;;
6386;SDS011;3226;42.162;24.756;2023-01-20T06:01:52;7.10;;;6.80;;
6386;SDS011;3226;42.162;24.756;2023-01-20T06:04:25;6.03;;;5.83;;
6386;SDS011;3226;42.162;24.756;2023-01-20T06:06:53;7.37;;;7.07;;
6386;SDS011;3226;42.162;24.756;2023-01-20T06:09:21;10.87;;;10.37;;
6386;SDS011;3226;42.162;24.756;2023-01-20T06:11:49;8.40;;;8.00;;
6386;SDS011;3226;42.162;24.756;2023-01-20T06:14:17;9.17;;;8.47;;
6386;SDS011;3226;42.162;24.756;2023-01-20T06:16:46;7.57;;;7.27;;
6386;SDS011;3226;42.162;24.756;2023-01-20T06:19:13;6.37;;;6.07;;
6386;SDS011;3226;42.162;24.756;2023-01-20T06:21:43;6.73;;;6.43;;
6386;SDS011;3226;42.162;24.756;2023-01-20T06:24:12;6.87;;;6.57;;
6386;SDS011;3226;42.162;24.756;2023-01-20T06:26:40;6.97;;;6.67;;
6386;SDS011;3226;42.162;24.756;2023-01-20T06:29:08;9.80;;;9.40;;
6386;SDS011;3226;42.162;24.756;2023-01-20T06:31:36;7.93;;;7.63;;
6386;SDS011;3226;42.162;24.756;2023-01-20T06:34:04;6.83;;;6.53;;
6386;SDS011;3226;42.162;24.756;2023-01-20T06:36:32;7.27;;;6.97;;
6386;SDS011;3226;42.162;24.756;2023-01-20T06:39:01;6.70;;;6.40;;
6386;SDS011;3226;42.162;24.756;2023-01-20T06:41:29;6.93;;;6.63;;
6386;SDS011;3226;42.162;24.756;2023-01-20T06:43:57;7.53;;;7.23;;
6386;SDS011;3226;42.162;24.756;2023-01-20T06:46:25;7.40;;;7.10;;
6386;SDS011;3226;42.162;24.756;2023-01-20T06:48:53;6.87;;;6.57;;
6386;SDS011;3226;42.162;24.756;2023-01-20T06:51:26;6.73;;;6.43;;
6386;SDS011;3226;42.162;24.756;2023-01-20T06:53:55;6.63;;;6.33;;
6386;SDS011;3226;42.162;24.756;2023-01-20T06:56:25;6.87;;;6.57;;
6386;SDS011;3226;42.162;24.756;2023-01-20T06:58:53;8.13;;;7.83;;
6386;SDS011;3226;42.162;24.756;2023-01-20T07:01:22;7.00;;;6.70;;
6386;SDS011;3226;42.162;24.756;2023-01-20T07:03:52;6.83;;;6.53;;
6386;SDS011;3226;42.162;24.756;2023-01-20T07:06:21;6.93;;;6.63;;
6386;SDS011;3226;42.162;24.756;2023-01-20T07:08:53;6.50;;;6.20;;
6386;SDS011;3226;42.162;24.756;2023-01-20T07:11:25;6.50;;;6.20;;
6386;SDS011;3226;42.162;24.756;2023-01-20T07:13:54;6.37;;;6.07;;
6386;SDS011;3226;42.162;24.756;2023-01-20T07:16:22;6.63;;;6.33;;
6386;SDS011;3226;42.162;24.756;2023-01-20T07:18:50;7.10;;;6.77;;
6386;SDS011;3226;42.162;24.756;2023-01-20T07:21:19;7.20;;;6.90;;
6386;SDS011;3226;42.162;24.756;2023-01-20T07:23:51;6.00;;;5.80;;
6386;SDS011;3226;42.162;24.756;2023-01-20T07:26:20;7.57;;;7.27;;
6386;SDS011;3226;42.162;24.756;2023-01-20T07:28:50;6.47;;;6.17;;
6386;SDS011;3226;42.162;24.756;2023-01-20T07:31:20;6.83;;;6.53;;
6386;SDS011;3226;42.162;24.756;2023-01-20T07:33:49;7.00;;;6.70;;
6386;SDS011;3226;42.162;24.756;2023-01-20T07:36:17;7.30;;;7.00;;
6386;SDS011;3226;42.162;24.756;2023-01-20T07:38:46;6.47;;;6.17;;
6386;SDS011;3226;42.162;24.756;2023-01-20T07:41:15;6.73;;;6.43;;
6386;SDS011;3226;42.162;24.756;2023-01-20T07:43:46;7.13;;;6.83;;
6386;SDS011;3226;42.162;24.756;2023-01-20T07:46:17;7.33;;;7.03;;
6386;SDS011;3226;42.162;24.756;2023-01-20T07:48:46;5.60;;;5.40;;
6386;SDS011;3226;42.162;24.756;2023-01-20T07:51:14;6.50;;;6.20;;
6386;SDS011;3226;42.162;24.756;2023-01-20T07:53:44;6.80;;;6.50;;
6386;SDS011;3226;42.162;24.756;2023-01-20T07:56:14;6.33;;;6.07;;
6386;SDS011;3226;42.162;24.756;2023-01-20T07:58:43;7.47;;;7.17;;
6386;SDS011;3226;42.162;24.756;2023-01-20T08:01:13;7.83;;;7.53;;
6386;SDS011;3226;42.162;24.756;2023-01-20T08:03:44;7.80;;;7.50;;
6386;SDS011;3226;42.162;24.756;2023-01-20T08:06:13;7.03;;;6.73;;
6386;SDS011;3226;42.162;24.756;2023-01-20T08:08:43;7.77;;;7.47;;
6386;SDS011;3226;42.162;24.756;2023-01-20T08:11:12;7.30;;;7.00;;
6386;SDS011;3226;42.162;24.756;2023-01-20T08:13:41;7.90;;;7.60;;
6386;SDS011;3226;42.162;24.756;2023-01-20T08:16:10;18.53;;;17.70;;
6386;SDS011;3226;42.162;24.756;2023-01-20T08:18:39;27.87;;;26.57;;
6386;SDS011;3226;42.162;24.756;2023-01-20T08:21:15;21.63;;;20.63;;
6386;SDS011;3226;42.162;24.756;2023-01-20T08:23:45;18.23;;;17.40;;
6386;SDS011;3226;42.162;24.756;2023-01-20T08:26:13;9.10;;;8.70;;
6386;SDS011;3226;42.162;24.756;2023-01-20T08:28:41;9.67;;;9.27;;
6386;SDS011;3226;42.162;24.756;2023-01-20T08:31:10;13.83;;;13.23;;
6386;SDS011;3226;42.162;24.756;2023-01-20T08:33:39;13.77;;;13.17;;
6386;SDS011;3226;42.162;24.756;2023-01-20T08:36:09;9.90;;;9.50;;
6386;SDS011;3226;42.162;24.756;2023-01-20T08:38:40;13.77;;;13.17;;
6386;SDS011;3226;42.162;24.756;2023-01-20T08:41:09;14.43;;;13.77;;
6386;SDS011;3226;42.162;24.756;2023-01-20T08:43:39;8.63;;;8.23;;
6386;SDS011;3226;42.162;24.756;2023-01-20T08:46:09;7.60;;;7.30;;
6386;SDS011;3226;42.162;24.756;2023-01-20T08:48:39;11.30;;;10.80;;
6386;SDS011;3226;42.162;24.756;2023-01-20T08:51:09;14.77;;;14.07;;
6386;SDS011;3226;42.162;24.756;2023-01-20T08:53:41;7.80;;;7.50;;
6386;SDS011;3226;42.162;24.756;2023-01-20T08:56:09;8.23;;;7.93;;
6386;SDS011;3226;42.162;24.756;2023-01-20T08:58:38;8.33;;;7.93;;
6386;SDS011;3226;42.162;24.756;2023-01-20T09:01:07;7.67;;;7.37;;
6386;SDS011;3226;42.162;24.756;2023-01-20T09:03:36;6.17;;;5.93;;
6386;SDS011;3226;42.162;24.756;2023-01-20T09:06:05;5.93;;;5.73;;
6386;SDS011;3226;42.162;24.756;2023-01-20T09:08:34;6.53;;;6.23;;
6386;SDS011;3226;42.162;24.756;2023-01-20T09:11:05;7.77;;;7.47;;
6386;SDS011;3226;42.162;24.756;2023-01-20T09:13:34;10.33;;;9.90;;
6386;SDS011;3226;42.162;24.756;2023-01-20T09:16:03;7.57;;;7.27;;
6386;SDS011;3226;42.162;24.756;2023-01-20T09:18:32;7.47;;;7.17;;
6386;SDS011;3226;42.162;24.756;2023-01-20T09:21:01;7.20;;;6.90;;
6386;SDS011;3226;42.162;24.756;2023-01-20T09:23:32;7.23;;;6.93;;
6386;SDS011;3226;42.162;24.756;2023-01-20T09:26:00;8.00;;;7.70;;
6386;SDS011;3226;42.162;24.756;2023-01-20T09:28:31;7.27;;;6.97;;
6386;SDS011;3226;42.162;24.756;2023-01-20T09:30:59;6.37;;;6.07;;
6386;SDS011;3226;42.162;24.756;2023-01-20T09:33:29;6.90;;;6.60;;
6386;SDS011;3226;42.162;24.756;2023-01-20T09:35:58;7.53;;;7.23;;
6386;SDS011;3226;42.162;24.756;2023-01-20T09:38:26;6.90;;;6.60;;
6386;SDS011;3226;42.162;24.756;2023-01-20T09:41:13;7.07;;;6.77;;
6386;SDS011;3226;42.162;24.756;2023-01-20T09:44:06;7.00;;;6.70;;
6386;SDS011;3226;42.162;24.756;2023-01-20T09:46:53;8.67;;;8.27;;
6386;SDS011;3226;42.162;24.756;2023-01-20T09:52:51;6.63;;;6.33;;
6386;SDS011;3226;42.162;24.756;2023-01-20T09:55:30;6.07;;;5.87;;
6386;SDS011;3226;42.162;24.756;2023-01-20T09:58:07;7.23;;;6.93;;
6386;SDS011;3226;42.162;24.756;2023-01-20T10:00:50;9.70;;;9.30;;
6386;SDS011;3226;42.162;24.756;2023-01-20T10:03:24;7.07;;;6.77;;
6386;SDS011;3226;42.162;24.756;2023-01-20T10:06:03;6.83;;;6.53;;
6386;SDS011;3226;42.162;24.756;2023-01-20T10:08:38;8.13;;;7.80;;
6386;SDS011;3226;42.162;24.756;2023-01-20T10:11:30;9.77;;;9.37;;
6386;SDS011;3226;42.162;24.756;2023-01-20T10:14:05;8.67;;;8.27;;
6386;SDS011;3226;42.162;24.756;2023-01-20T10:16:42;6.27;;;5.97;;
6386;SDS011;3226;42.162;24.756;2023-01-20T10:19:17;6.40;;;6.10;;
6386;SDS011;3226;42.162;24.756;2023-01-20T10:21:54;5.97;;;5.77;;
6386;SDS011;3226;42.162;24.756;2023-01-20T10:24:32;7.33;;;7.03;;
6386;SDS011;3226;42.162;24.756;2023-01-20T10:27:03;7.20;;;6.90;;
6386;SDS011;3226;42.162;24.756;2023-01-20T10:29:33;6.87;;;6.57;;
6386;SDS011;3226;42.162;24.756;2023-01-20T10:32:04;7.30;;;7.00;;
6386;SDS011;3226;42.162;24.756;2023-01-20T10:34:40;7.27;;;6.97;;
6386;SDS011;3226;42.162;24.756;2023-01-20T10:37:11;6.13;;;5.93;;
6386;SDS011;3226;42.162;24.756;2023-01-20T10:39:42;6.97;;;6.67;;
6386;SDS011;3226;42.162;24.756;2023-01-20T10:42:15;6.67;;;6.37;;
6386;SDS011;3226;42.162;24.756;2023-01-20T10:44:46;7.27;;;6.97;;
6386;SDS011;3226;42.162;24.756;2023-01-20T10:50:15;7.15;;;6.85;;
6386;SDS011;3226;42.162;24.756;2023-01-20T10:53:00;6.77;;;6.47;;
6386;SDS011;3226;42.162;24.756;2023-01-20T10:55:42;7.03;;;6.73;;
6386;SDS011;3226;42.162;24.756;2023-01-20T10:58:24;7.27;;;6.97;;
6386;SDS011;3226;42.162;24.756;2023-01-20T11:00:54;6.70;;;6.40;;
6386;SDS011;3226;42.162;24.756;2023-01-20T11:03:27;6.63;;;6.33;;
6386;SDS011;3226;42.162;24.756;2023-01-20T11:06:00;6.30;;;6.00;;
6386;SDS011;3226;42.162;24.756;2023-01-20T11:08:30;7.13;;;6.83;;
6386;SDS011;3226;42.162;24.756;2023-01-20T11:10:58;6.73;;;6.43;;
6386;SDS011;3226;42.162;24.756;2023-01-20T11:13:35;8.90;;;8.50;;
6386;SDS011;3226;42.162;24.756;2023-01-20T11:16:05;6.67;;;6.37;;
6386;SDS011;3226;42.162;24.756;2023-01-20T11:18:41;7.33;;;7.03;;
6386;SDS011;3226;42.162;24.756;2023-01-20T11:21:10;6.87;;;6.57;;
6386;SDS011;3226;42.162;24.756;2023-01-20T11:23:40;7.30;;;7.00;;
6386;SDS011;3226;42.162;24.756;2023-01-20T11:26:16;7.87;;;7.57;;
6386;SDS011;3226;42.162;24.756;2023-01-20T11:28:48;8.23;;;7.87;;
6386;SDS011;3226;42.162;24.756;2023-01-20T11:31:19;6.97;;;6.67;;
6386;SDS011;3226;42.162;24.756;2023-01-20T11:33:57;7.53;;;7.23;;
6386;SDS011;3226;42.162;24.756;2023-01-20T11:36:27;6.27;;;5.97;;
6386;SDS011;3226;42.162;24.756;2023-01-20T11:38:56;6.97;;;6.67;;
6386;SDS011;3226;42.162;24.756;2023-01-20T11:41:24;7.63;;;7.33;;
6386;SDS011;3226;42.162;24.756;2023-01-20T11:43:54;7.63;;;7.33;;
6386;SDS011;3226;42.162;24.756;2023-01-20T11:46:25;6.53;;;6.23;;
6386;SDS011;3226;42.162;24.756;2023-01-20T11:51:51;6.50;;;6.20;;
6386;SDS011;3226;42.162;24.756;2023-01-20T11:54:21;6.53;;;6.23;;
6386;SDS011;3226;42.162;24.756;2023-01-20T11:56:51;6.70;;;6.40;;
6386;SDS011;3226;42.162;24.756;2023-01-20T11:59:24;7.03;;;6.73;;
6386;SDS011;3226;42.162;24.756;2023-01-20T12:01:58;6.13;;;5.90;;
6386;SDS011;3226;42.162;24.756;2023-01-20T12:07:26;7.00;;;6.70;;
6386;SDS011;3226;42.162;24.756;2023-01-20T12:09:59;6.43;;;6.13;;
6386;SDS011;3226;42.162;24.756;2023-01-20T12:12:33;7.07;;;6.77;;
6386;SDS011;3226;42.162;24.756;2023-01-20T12:15:08;7.50;;;7.20;;
6386;SDS011;3226;42.162;24.756;2023-01-20T12:17:45;7.93;;;7.63;;
6386;SDS011;3226;42.162;24.756;2023-01-20T12:20:21;7.03;;;6.73;;
6386;SDS011;3226;42.162;24.756;2023-01-20T12:22:57;7.20;;;6.90;;
6386;SDS011;3226;42.162;24.756;2023-01-20T12:25:34;6.87;;;6.57;;
6386;SDS011;3226;42.162;24.756;2023-01-20T12:28:10;6.33;;;6.03;;
6386;SDS011;3226;42.162;24.756;2023-01-20T12:30:43;7.03;;;6.73;;
6386;SDS011;3226;42.162;24.756;2023-01-20T12:33:20;6.07;;;5.87;;
6386;SDS011;3226;42.162;24.756;2023-01-20T12:44:57;6.53;;;6.23;;
6386;SDS011;3226;42.162;24.756;2023-01-20T12:47:34;7.07;;;6.77;;
6386;SDS011;3226;42.162;24.756;2023-01-20T12:50:18;7.33;;;7.03;;
6386;SDS011;3226;42.162;24.756;2023-01-20T12:53:03;6.90;;;6.60;;
6386;SDS011;3226;42.162;24.756;2023-01-20T12:55:50;6.70;;;6.40;;
6386;SDS011;3226;42.162;24.756;2023-01-20T12:58:32;7.47;;;7.17;;
6386;SDS011;3226;42.162;24.756;2023-01-20T13:01:17;7.00;;;6.70;;
6386;SDS011;3226;42.162;24.756;2023-01-20T13:07:08;6.63;;;6.33;;
6386;SDS011;3226;42.162;24.756;2023-01-20T13:09:49;7.53;;;7.23;;
6386;SDS011;3226;42.162;24.756;2023-01-20T13:12:36;6.73;;;6.43;;
6386;SDS011;3226;42.162;24.756;2023-01-20T13:15:16;10.10;;;9.60;;
6386;SDS011;3226;42.162;24.756;2023-01-20T13:18:01;6.73;;;6.43;;
6386;SDS011;3226;42.162;24.756;2023-01-20T13:20:42;6.20;;;5.93;;
6386;SDS011;3226;42.162;24.756;2023-01-20T13:23:12;7.13;;;6.83;;
6386;SDS011;3226;42.162;24.756;2023-01-20T13:25:43;6.60;;;6.30;;
6386;SDS011;3226;42.162;24.756;2023-01-20T13:28:16;7.37;;;7.07;;
6386;SDS011;3226;42.162;24.756;2023-01-20T13:30:48;7.87;;;7.57;;
6386;SDS011;3226;42.162;24.756;2023-01-20T13:33:28;6.10;;;5.90;;
6386;SDS011;3226;42.162;24.756;2023-01-20T13:35:59;7.17;;;6.87;;
6386;SDS011;3226;42.162;24.756;2023-01-20T13:38:39;6.67;;;6.37;;
6386;SDS011;3226;42.162;24.756;2023-01-20T13:41:08;7.57;;;7.27;;
6386;SDS011;3226;42.162;24.756;2023-01-20T13:46:39;7.60;;;7.30;;
6386;SDS011;3226;42.162;24.756;2023-01-20T13:49:15;6.67;;;6.37;;
6386;SDS011;3226;42.162;24.756;2023-01-20T13:51:51;8.50;;;8.10;;
6386;SDS011;3226;42.162;24.756;2023-01-20T13:54:35;7.77;;;7.47;;
6386;SDS011;3226;42.162;24.756;2023-01-20T13:57:33;7.37;;;7.07;;
6386;SDS011;3226;42.162;24.756;2023-01-20T14:00:15;6.73;;;6.43;;
6386;SDS011;3226;42.162;24.756;2023-01-20T14:02:48;6.77;;;6.47;;
6386;SDS011;3226;42.162;24.756;2023-01-20T14:05:26;7.07;;;6.77;;
6386;SDS011;3226;42.162;24.756;2023-01-20T14:07:56;6.50;;;6.20;;
6386;SDS011;3226;42.162;24.756;2023-01-20T14:10:25;7.03;;;6.73;;
6386;SDS011;3226;42.162;24.756;2023-01-20T14:12:54;6.33;;;6.03;;
6386;SDS011;3226;42.162;24.756;2023-01-20T14:15:26;6.57;;;6.27;;
6386;SDS011;3226;42.162;24.756;2023-01-20T14:18:14;7.53;;;7.23;;
6386;SDS011;3226;42.162;24.756;2023-01-20T14:20:54;7.37;;;7.07;;
6386;SDS011;3226;42.162;24.756;2023-01-20T14:23:27;7.30;;;7.00;;
6386;SDS011;3226;42.162;24.756;2023-01-20T14:26:09;6.90;;;6.60;;
6386;SDS011;3226;42.162;24.756;2023-01-20T14:28:39;6.47;;;6.17;;
6386;SDS011;3226;42.162;24.756;2023-01-20T14:31:14;7.37;;;7.07;;
6386;SDS011;3226;42.162;24.756;2023-01-20T14:33:46;7.03;;;6.73;;
6386;SDS011;3226;42.162;24.756;2023-01-20T14:36:17;7.30;;;7.00;;
6386;SDS011;3226;42.162;24.756;2023-01-20T14:38:48;6.30;;;6.00;;
6386;SDS011;3226;42.162;24.756;2023-01-20T14:41:27;6.67;;;6.37;;
6386;SDS011;3226;42.162;24.756;2023-01-20T14:43:58;7.23;;;6.93;;
6386;SDS011;3226;42.162;24.756;2023-01-20T14:46:27;6.07;;;5.87;;
6386;SDS011;3226;42.162;24.756;2023-01-20T14:48:58;6.43;;;6.13;;
6386;SDS011;3226;42.162;24.756;2023-01-20T14:51:27;6.87;;;6.37;;
6386;SDS011;3226;42.162;24.756;2023-01-20T15:00:12;6.73;;;6.43;;
6386;SDS011;3226;42.162;24.756;2023-01-20T15:02:46;7.87;;;7.57;;
6386;SDS011;3226;42.162;24.756;2023-01-20T15:05:37;6.20;;;6.00;;
6386;SDS011;3226;42.162;24.756;2023-01-20T15:08:20;6.50;;;6.20;;
6386;SDS011;3226;42.162;24.756;2023-01-20T15:14:05;6.50;;;6.20;;
6386;SDS011;3226;42.162;24.756;2023-01-20T15:16:44;7.37;;;7.07;;
6386;SDS011;3226;42.162;24.756;2023-01-20T15:19:16;6.80;;;6.50;;
6386;SDS011;3226;42.162;24.756;2023-01-20T15:22:20;5.97;;;5.77;;
6386;SDS011;3226;42.162;24.756;2023-01-20T15:24:50;6.83;;;6.53;;
6386;SDS011;3226;42.162;24.756;2023-01-20T15:27:20;6.97;;;6.67;;
6386;SDS011;3226;42.162;24.756;2023-01-20T15:29:57;6.90;;;6.60;;
6386;SDS011;3226;42.162;24.756;2023-01-20T15:32:31;6.17;;;5.93;;
6386;SDS011;3226;42.162;24.756;2023-01-20T15:34:59;7.00;;;6.70;;
6386;SDS011;3226;42.162;24.756;2023-01-20T15:37:28;6.60;;;6.30;;
6386;SDS011;3226;42.162;24.756;2023-01-20T15:39:56;7.10;;;6.80;;
6386;SDS011;3226;42.162;24.756;2023-01-20T15:42:24;6.67;;;6.37;;
6386;SDS011;3226;42.162;24.756;2023-01-20T15:44:52;6.87;;;6.57;;
6386;SDS011;3226;42.162;24.756;2023-01-20T15:47:21;7.00;;;6.70;;
6386;SDS011;3226;42.162;24.756;2023-01-20T15:49:54;7.23;;;6.93;;
6386;SDS011;3226;42.162;24.756;2023-01-20T15:52:22;6.57;;;6.27;;
6386;SDS011;3226;42.162;24.756;2023-01-20T15:54:51;7.20;;;6.90;;
6386;SDS011;3226;42.162;24.756;2023-01-20T15:57:19;7.07;;;6.77;;
6386;SDS011;3226;42.162;24.756;2023-01-20T15:59:47;6.50;;;6.20;;
6386;SDS011;3226;42.162;24.756;2023-01-20T16:02:16;7.17;;;6.87;;
6386;SDS011;3226;42.162;24.756;2023-01-20T16:04:45;7.40;;;7.10;;
6386;SDS011;3226;42.162;24.756;2023-01-20T16:07:14;7.27;;;6.97;;
6386;SDS011;3226;42.162;24.756;2023-01-20T16:09:44;7.40;;;7.10;;